Terminal Aerodrome Forecast
Issued by NWS Upton, NY

Home | Current Version | Previous Version | Text Only | Print | Product List | Glossary On
Versions: 1 2 3 4 5 6 7 8 9 10 11 12 13 14 15 16 17 18 19 20 21 22 23 24 25
000
FTUS41 KOKX 300816 AAA
TAFLGA
TAF AMD
KLGA 300816Z 3008/3106 22007KT P6SM FEW020 SCT250
     FM301200 21010KT 6SM HZ VCSH FEW030 SCT080 BKN250
     FM301500 20014G20KT P6SM BKN050
      TEMPO 3021/3023 3SM TSRA BKN030CB
     FM302300 22010KT 6SM -SHRA BKN040
     FM310300 24008KT P6SM SCT050 BKN080
     FM310500 29006KT P6SM BKN080=

USA.gov is the U.S. government's official web portal to all federal, state and local government web resources and services.